createdAt,value
2019-06-07T00:01:16.481Z,90.50
2019-06-07T00:03:45.734Z,90.50
2019-06-07T00:06:20.338Z,90.60
2019-06-07T00:08:46.056Z,90.70
2019-06-07T00:11:18.619Z,90.70
2019-06-07T00:13:46.307Z,90.80
2019-06-07T00:16:19.875Z,90.90
2019-06-07T00:18:46.574Z,91.00
2019-06-07T00:21:17.804Z,91.10
2019-06-07T00:23:46.887Z,91.30
2019-06-07T00:26:18.171Z,91.30
2019-06-07T00:28:47.174Z,91.40
2019-06-07T00:31:21.918Z,91.40
2019-06-07T00:33:47.503Z,91.40
2019-06-07T00:36:18.180Z,91.40
2019-06-07T00:38:47.842Z,91.50
2019-06-07T00:41:19.298Z,91.50
2019-06-07T00:43:48.164Z,91.60
2019-06-07T00:46:18.871Z,91.60
2019-06-07T00:48:48.443Z,91.70
2019-06-07T00:51:19.616Z,92.10
2019-06-07T00:53:48.711Z,91.80
2019-06-07T00:56:20.276Z,91.80
2019-06-07T00:59:09.794Z,91.90
2019-06-07T01:01:20.951Z,91.90
2019-06-07T01:03:50.975Z,91.90
2019-06-07T01:06:22.953Z,91.90
2019-06-07T01:08:51.262Z,92.00
2019-06-07T01:11:23.154Z,92.00
2019-06-07T01:13:51.575Z,92.00
2019-06-07T01:16:23.446Z,92.10
2019-06-07T01:18:51.802Z,92.10
2019-06-07T01:21:24.826Z,92.20
2019-06-07T01:24:10.836Z,92.20
2019-06-07T01:26:26.744Z,92.30
2019-06-07T01:28:55.196Z,92.40
2019-06-07T01:31:27.783Z,92.50
2019-06-07T01:33:55.483Z,92.50
2019-06-07T01:36:29.051Z,92.60
2019-06-07T01:38:55.747Z,92.60
2019-06-07T01:41:27.804Z,92.60
2019-06-07T01:43:56.022Z,92.70
2019-06-07T01:46:26.675Z,92.80
2019-06-07T01:48:56.268Z,92.90
2019-06-07T01:51:27.883Z,92.90
2019-06-07T01:54:41.421Z,93.00
2019-06-07T01:56:29.598Z,93.10
2019-06-07T01:58:58.502Z,93.10
2019-06-07T02:01:34.646Z,93.10
2019-06-07T02:03:58.783Z,93.20
2019-06-07T02:06:31.990Z,93.20
2019-06-07T02:08:59.048Z,93.30
2019-06-07T02:11:29.413Z,93.70
2019-06-07T02:13:59.314Z,93.30
2019-06-07T02:16:32.032Z,93.40
2019-06-07T02:19:02.076Z,93.50
2019-06-07T02:21:34.070Z,93.60
2019-06-07T02:24:01.531Z,93.60
2019-06-07T02:26:32.540Z,93.70
2019-06-07T02:29:02.039Z,93.80
2019-06-07T02:31:38.666Z,93.80
2019-06-07T02:34:02.305Z,93.90
2019-06-07T02:36:39.263Z,93.90
2019-06-07T02:39:02.572Z,93.90
2019-06-07T02:41:38.544Z,94.00
2019-06-07T02:44:03.692Z,94.00
2019-06-07T02:46:44.727Z,94.00
2019-06-07T02:49:03.948Z,94.00
2019-06-07T02:51:40.717Z,94.00
2019-06-07T02:54:24.084Z,94.00
2019-06-07T02:56:58.374Z,94.00
2019-06-07T02:59:46.866Z,93.90
2019-06-07T03:01:56.699Z,94.00
2019-06-07T03:04:29.503Z,94.00
2019-06-07T03:06:59.114Z,94.00
2019-06-07T03:09:32.801Z,94.00
2019-06-07T03:12:01.980Z,94.00
2019-06-07T03:14:35.414Z,94.10
2019-06-07T03:17:06.580Z,94.10
2019-06-07T03:19:39.473Z,94.10
2019-06-07T03:22:08.942Z,94.20
2019-06-07T03:24:41.305Z,94.20
2019-06-07T03:29:41.321Z,94.20
2019-06-07T03:32:10.874Z,94.20
2019-06-07T03:34:43.522Z,94.10
2019-06-07T03:37:11.216Z,94.10
2019-06-07T03:39:41.173Z,94.10
2019-06-07T03:42:10.565Z,94.10
2019-06-07T03:44:41.610Z,94.10
2019-06-07T03:47:10.827Z,94.10
2019-06-07T03:49:42.679Z,94.20
2019-06-07T03:52:11.102Z,94.20
2019-06-07T03:54:40.401Z,94.20
2019-06-07T03:57:09.685Z,94.20
2019-06-07T03:59:41.399Z,94.20
2019-06-07T04:02:09.943Z,94.20
2019-06-07T04:04:39.937Z,94.20
2019-06-07T04:07:09.404Z,94.20
2019-06-07T04:09:42.411Z,94.20
2019-06-07T04:12:09.684Z,94.20
2019-06-07T04:14:42.521Z,94.20
2019-06-07T04:17:09.964Z,94.20
2019-06-07T04:19:43.044Z,94.20
2019-06-07T04:22:10.235Z,94.20
2019-06-07T04:24:41.961Z,94.20
2019-06-07T04:27:10.515Z,94.10
2019-06-07T04:30:03.040Z,94.50
2019-06-07T04:32:10.800Z,94.10
2019-06-07T04:34:42.864Z,94.10
2019-06-07T04:37:11.342Z,94.10
2019-06-07T04:39:44.979Z,94.00
2019-06-07T04:42:15.199Z,93.90
2019-06-07T04:44:46.033Z,93.90
2019-06-07T04:47:16.063Z,93.90
2019-06-07T04:49:47.064Z,93.80
2019-06-07T04:52:16.319Z,93.90
2019-06-07T04:54:46.684Z,93.80
2019-06-07T04:57:15.968Z,93.70
2019-06-07T05:02:16.248Z,93.50
2019-06-07T05:04:45.535Z,93.50
2019-06-07T05:07:14.811Z,93.50
2019-06-07T05:09:44.123Z,93.70
2019-06-07T05:12:13.417Z,93.30
2019-06-07T05:14:44.333Z,93.20
2019-06-07T05:17:13.895Z,93.20
2019-06-07T05:19:44.424Z,93.10
2019-06-07T05:22:14.131Z,93.10
2019-06-07T05:24:43.894Z,93.00
2019-06-07T05:27:13.487Z,93.00
2019-06-07T05:29:44.297Z,92.90
2019-06-07T05:32:14.548Z,92.80
2019-06-07T05:34:47.252Z,92.70
2019-06-07T05:37:14.896Z,92.70
2019-06-07T05:39:46.545Z,92.60
2019-06-07T05:42:15.178Z,92.50
2019-06-07T05:44:45.879Z,92.50
2019-06-07T05:47:15.437Z,92.50
2019-06-07T05:49:47.127Z,92.40
2019-06-07T05:52:15.739Z,92.40
2019-06-07T05:54:46.785Z,92.30
2019-06-07T05:57:16.021Z,92.10
2019-06-07T05:59:47.459Z,92.00
2019-06-07T06:02:22.502Z,91.80
2019-06-07T06:04:49.415Z,91.70
2019-06-07T06:07:18.925Z,91.50
2019-06-07T06:09:48.209Z,91.40
2019-06-07T06:12:34.184Z,91.30
2019-06-07T06:14:48.494Z,91.10
2019-06-07T06:17:17.792Z,91.10
2019-06-07T06:19:52.605Z,90.70
2019-06-07T06:22:19.139Z,90.50
2019-06-07T06:25:28.793Z,90.40
2019-06-07T06:28:02.461Z,90.30
2019-06-07T06:29:52.478Z,90.20
2019-06-07T06:34:55.436Z,90.20
2019-06-07T06:37:23.911Z,90.00
2019-06-07T06:39:54.168Z,89.40
2019-06-07T06:42:23.451Z,88.90
2019-06-07T06:44:54.163Z,88.50
2019-06-07T06:47:23.785Z,88.40
2019-06-07T06:49:54.310Z,88.00
2019-06-07T06:52:23.994Z,87.70
2019-06-07T06:55:00.220Z,87.10
2019-06-07T06:57:25.653Z,86.80
2019-06-07T06:59:55.235Z,85.50
2019-06-07T07:02:24.545Z,85.30
2019-06-07T07:04:54.234Z,85.10
2019-06-07T07:07:25.989Z,84.90
2019-06-07T07:09:59.309Z,85.00
2019-06-07T07:12:27.245Z,84.50
2019-06-07T07:14:56.601Z,83.60
2019-06-07T07:17:46.968Z,83.10
2019-06-07T07:19:56.995Z,83.20
2019-06-07T07:22:27.357Z,82.40
2019-06-07T07:24:56.640Z,82.10
2019-06-07T07:27:25.932Z,81.10
2019-06-07T07:30:31.298Z,81.10
2019-06-07T07:32:26.231Z,80.70
2019-06-07T07:35:00.332Z,80.00
2019-06-07T07:37:26.522Z,80.60
2019-06-07T07:40:01.761Z,79.00
2019-06-07T07:42:26.900Z,79.20
2019-06-07T07:44:56.828Z,78.70
2019-06-07T07:47:26.291Z,78.40
2019-06-07T07:49:58.628Z,78.30
2019-06-07T07:52:26.556Z,77.50
2019-06-07T07:54:57.732Z,77.10
2019-06-07T07:57:26.814Z,76.20
2019-06-07T08:00:13.179Z,76.20
2019-06-07T08:02:29.892Z,75.40
2019-06-07T08:05:21.902Z,75.00
2019-06-07T08:07:31.607Z,74.60
2019-06-07T08:10:03.794Z,74.90
2019-06-07T08:12:54.853Z,74.50
2019-06-07T08:15:03.740Z,74.10
2019-06-07T08:17:34.659Z,73.90
2019-06-07T08:20:05.784Z,73.10
2019-06-07T08:22:35.060Z,72.80
2019-06-07T08:25:05.994Z,72.90
2019-06-07T08:27:35.270Z,72.70
2019-06-07T08:30:35.041Z,72.60
2019-06-07T08:32:38.622Z,72.10
2019-06-07T08:35:08.655Z,70.90
2019-06-07T08:40:11.018Z,70.10
2019-06-07T08:42:59.973Z,70.20
2019-06-07T08:45:12.778Z,69.80
2019-06-07T08:47:43.463Z,69.60
2019-06-07T08:50:13.814Z,69.10
2019-06-07T08:52:43.094Z,68.80
2019-06-07T08:55:12.732Z,68.40
2019-06-07T08:57:43.250Z,68.00
2019-06-07T09:02:44.275Z,67.80
2019-06-07T09:05:13.820Z,67.30
2019-06-07T09:07:43.088Z,66.70
2019-06-07T09:10:15.281Z,66.00
2019-06-07T09:12:44.991Z,65.80
2019-06-07T09:15:23.634Z,65.20
2019-06-07T09:18:30.557Z,64.80
2019-06-07T09:20:35.715Z,64.20
2019-06-07T09:22:49.907Z,63.50
2019-06-07T09:25:21.620Z,63.20
2019-06-07T09:27:50.399Z,63.20
2019-06-07T09:30:25.367Z,62.70
2019-06-07T09:32:56.835Z,63.20
2019-06-07T09:35:26.586Z,62.90
2019-06-07T09:38:07.896Z,62.60
2019-06-07T09:40:31.441Z,62.60
2019-06-07T09:43:46.718Z,62.30
2019-06-07T09:45:31.698Z,61.90
2019-06-07T09:48:04.444Z,61.60
2019-06-07T09:50:31.980Z,62.20
2019-06-07T09:53:10.554Z,61.70
2019-06-07T09:55:32.256Z,60.70
2019-06-07T09:58:30.243Z,60.80
2019-06-07T10:00:42.279Z,61.20
2019-06-07T10:03:16.148Z,61.50
2019-06-07T10:05:35.691Z,61.20
2019-06-07T10:08:38.641Z,60.70
2019-06-07T10:10:37.100Z,60.20
2019-06-07T10:13:06.993Z,60.40
2019-06-07T10:15:37.451Z,61.00
2019-06-07T10:18:07.040Z,60.10
2019-06-07T10:20:36.492Z,60.10
2019-06-07T10:23:05.884Z,60.10
2019-06-07T10:25:35.211Z,59.30
2019-06-07T10:28:05.942Z,58.50
2019-06-07T10:30:36.367Z,58.80
2019-06-07T10:33:06.908Z,58.50
2019-06-07T10:35:36.431Z,58.50
2019-06-07T10:38:06.615Z,58.50
2019-06-07T10:40:37.007Z,58.10
2019-06-07T10:43:07.196Z,58.00
2019-06-07T10:45:36.651Z,57.60
2019-06-07T10:48:07.649Z,58.10
2019-06-07T10:50:37.047Z,58.20
2019-06-07T10:53:06.547Z,58.00
2019-06-07T10:55:35.863Z,57.70
2019-06-07T10:58:05.243Z,57.40
2019-06-07T11:00:34.711Z,57.20
2019-06-07T11:03:05.830Z,56.90
2019-06-07T11:05:35.520Z,56.70
2019-06-07T11:08:05.987Z,56.80
2019-06-07T11:10:35.406Z,57.00
2019-06-07T11:13:04.682Z,57.50
2019-06-07T11:15:33.983Z,57.40
2019-06-07T11:18:03.275Z,56.40
2019-06-07T11:20:32.562Z,55.60
2019-06-07T11:23:01.888Z,55.20
2019-06-07T11:25:31.172Z,55.20
2019-06-07T11:28:00.444Z,55.30
2019-06-07T11:30:29.739Z,55.20
2019-06-07T11:32:59.054Z,55.30
2019-06-07T11:35:28.375Z,55.10
2019-06-07T11:37:57.677Z,55.20
2019-06-07T11:40:34.832Z,55.40
2019-06-07T11:42:57.936Z,55.40
2019-06-07T11:45:27.218Z,54.20
2019-06-07T11:47:59.759Z,53.90
2019-06-07T11:50:27.491Z,52.70
2019-06-07T11:52:56.777Z,52.10
2019-06-07T11:55:26.063Z,52.20
2019-06-07T11:57:55.350Z,52.20
2019-06-07T12:00:25.569Z,52.10
2019-06-07T12:02:54.840Z,51.90
2019-06-07T12:05:24.199Z,51.30
2019-06-07T12:07:56.859Z,51.10
2019-06-07T12:10:24.632Z,51.00
2019-06-07T12:12:54.043Z,50.20
2019-06-07T12:15:23.319Z,49.80
2019-06-07T12:17:52.650Z,49.40
2019-06-07T12:20:22.071Z,49.40
2019-06-07T12:22:51.347Z,48.70
2019-06-07T12:25:24.748Z,48.60
2019-06-07T12:27:51.791Z,48.70
2019-06-07T12:30:27.294Z,47.20
2019-06-07T12:32:52.265Z,46.40
2019-06-07T12:35:21.903Z,45.60
2019-06-07T12:37:51.207Z,45.90
2019-06-07T12:40:30.086Z,46.20
2019-06-07T12:42:51.640Z,46.60
2019-06-07T12:45:41.345Z,46.00
2019-06-07T12:47:52.047Z,46.30
2019-06-07T12:50:21.750Z,45.40
2019-06-07T12:52:51.391Z,45.80
2019-06-07T12:55:22.673Z,45.50
2019-06-07T12:57:51.979Z,44.70
2019-06-07T13:00:22.411Z,44.20
2019-06-07T13:02:51.773Z,44.50
2019-06-07T13:05:21.728Z,44.40
2019-06-07T13:07:51.156Z,44.60
2019-06-07T13:10:22.099Z,44.70
2019-06-07T13:12:51.432Z,44.90
2019-06-07T13:15:23.868Z,43.90
2019-06-07T13:17:51.791Z,44.70
2019-06-07T13:20:22.714Z,44.40
2019-06-07T13:22:52.236Z,44.70
2019-06-07T13:25:30.022Z,44.50
2019-06-07T13:27:54.587Z,44.50
2019-06-07T13:30:25.662Z,44.50
2019-06-07T13:32:54.960Z,44.60
2019-06-07T13:35:25.451Z,45.30
2019-06-07T13:37:54.960Z,45.10
2019-06-07T13:40:25.251Z,44.40
2019-06-07T13:42:54.628Z,44.60
2019-06-07T13:45:24.339Z,43.60
2019-06-07T13:47:53.774Z,43.30
2019-06-07T13:50:24.078Z,43.80
2019-06-07T13:52:53.548Z,44.10
2019-06-07T13:55:23.951Z,43.80
2019-06-07T13:57:53.395Z,42.80
2019-06-07T14:00:24.873Z,42.70
2019-06-07T14:02:54.223Z,42.20
2019-06-07T14:05:24.930Z,42.10
2019-06-07T14:07:54.469Z,42.10
2019-06-07T14:10:23.754Z,42.70
2019-06-07T14:12:53.054Z,43.20
2019-06-07T14:15:22.467Z,43.20
2019-06-07T14:17:51.761Z,43.00
2019-06-07T14:20:26.620Z,42.60
2019-06-07T14:22:54.557Z,42.10
2019-06-07T14:25:25.141Z,42.20
2019-06-07T14:27:54.485Z,41.80
2019-06-07T14:30:24.031Z,41.70
2019-06-07T14:32:53.510Z,41.80
2019-06-07T14:35:22.835Z,39.90
2019-06-07T14:37:52.336Z,38.80
2019-06-07T14:40:23.161Z,37.90
2019-06-07T14:42:52.545Z,38.00
2019-06-07T14:45:21.896Z,38.60
2019-06-07T14:47:51.182Z,39.80
2019-06-07T14:50:20.601Z,40.00
2019-06-07T14:52:50.185Z,40.60
2019-06-07T14:55:19.662Z,41.50
2019-06-07T14:57:49.031Z,42.60
2019-06-07T15:00:18.772Z,42.90
2019-06-07T15:02:48.060Z,43.70
2019-06-07T15:05:20.426Z,43.80
2019-06-07T15:07:49.708Z,44.20
2019-06-07T15:10:19.073Z,44.50
2019-06-07T15:12:49.503Z,45.30
2019-06-07T15:15:18.929Z,45.80
2019-06-07T15:17:48.231Z,47.00
2019-06-07T15:20:17.731Z,48.50
2019-06-07T15:22:47.039Z,49.60
2019-06-07T15:25:16.412Z,50.10
2019-06-07T15:27:45.760Z,50.00
2019-06-07T15:30:15.893Z,47.90
2019-06-07T15:32:45.188Z,47.80
2019-06-07T15:35:15.290Z,48.40
2019-06-07T15:37:44.584Z,48.80
2019-06-07T15:40:14.513Z,49.80
2019-06-07T15:42:52.383Z,52.50
2019-06-07T15:45:15.001Z,57.90
2019-06-07T15:47:44.387Z,61.10
2019-06-07T15:50:15.759Z,65.50
2019-06-07T15:52:45.040Z,70.20
2019-06-07T15:55:15.111Z,73.50
2019-06-07T15:57:44.413Z,76.20
2019-06-07T16:00:15.905Z,77.30
2019-06-07T16:02:45.193Z,79.50
2019-06-07T16:05:14.825Z,80.70
2019-06-07T16:07:44.120Z,82.90
2019-06-07T16:10:13.957Z,83.30
2019-06-07T16:12:59.254Z,85.80
2019-06-07T16:15:14.783Z,86.90
2019-06-07T16:17:44.052Z,86.90
2019-06-07T16:20:14.791Z,81.20
2019-06-07T16:22:44.109Z,80.30
2019-06-07T16:25:15.229Z,80.90
2019-06-07T16:27:44.788Z,81.10
2019-06-07T16:30:14.940Z,79.90
2019-06-07T16:32:46.211Z,79.50
2019-06-07T16:35:15.950Z,76.90
2019-06-07T16:37:49.656Z,75.80
2019-06-07T16:40:16.879Z,75.80
2019-06-07T16:42:46.214Z,73.10
2019-06-07T16:45:16.908Z,72.50
2019-06-07T16:47:47.845Z,73.20
2019-06-07T16:50:17.516Z,72.30
2019-06-07T16:52:48.428Z,70.80
2019-06-07T16:55:18.654Z,70.60
2019-06-07T16:57:49.229Z,68.90
2019-06-07T17:00:19.636Z,66.50
2019-06-07T17:02:48.948Z,66.80
2019-06-07T17:05:18.618Z,66.90
2019-06-07T17:07:48.915Z,66.30
2019-06-07T17:10:18.795Z,66.00
2019-06-07T17:12:48.992Z,65.20
2019-06-07T17:15:19.090Z,65.30
2019-06-07T17:17:49.299Z,65.60
2019-06-07T17:20:19.655Z,66.60
2019-06-07T17:22:49.738Z,67.10
2019-06-07T17:25:19.178Z,66.80
2019-06-07T17:27:49.988Z,67.00
2019-06-07T17:30:20.685Z,66.60
2019-06-07T17:32:57.699Z,66.30
2019-06-07T17:35:21.030Z,66.60
2019-06-07T17:37:51.545Z,66.60
2019-06-07T17:40:21.066Z,66.70
2019-06-07T17:42:51.169Z,66.50
2019-06-07T17:45:20.603Z,66.10
2019-06-07T17:47:49.976Z,65.80
2019-06-07T17:50:19.596Z,65.40
2019-06-07T17:52:50.191Z,65.40
2019-06-07T17:55:19.976Z,65.20
2019-06-07T17:57:50.557Z,65.00
2019-06-07T18:00:29.091Z,65.30
2019-06-07T18:02:52.961Z,65.10
2019-06-07T18:05:22.681Z,64.90
2019-06-07T18:07:53.873Z,64.50
2019-06-07T18:10:35.553Z,64.10
2019-06-07T18:13:06.120Z,64.10
2019-06-07T18:15:50.713Z,63.70
2019-06-07T18:18:17.680Z,63.80
2019-06-07T18:20:47.305Z,63.70
2019-06-07T18:23:16.701Z,64.10
2019-06-07T18:25:46.462Z,63.90
2019-06-07T18:28:15.911Z,63.70
2019-06-07T18:30:46.403Z,63.50
2019-06-07T18:33:15.875Z,63.70
2019-06-07T18:35:45.179Z,63.60
2019-06-07T18:38:14.466Z,63.60
2019-06-07T18:40:43.795Z,63.30
2019-06-07T18:43:13.087Z,62.70
2019-06-07T18:45:42.377Z,63.00
2019-06-07T18:48:11.662Z,62.90
2019-06-07T18:50:40.945Z,62.80
2019-06-07T18:53:10.251Z,62.80
2019-06-07T18:55:39.531Z,62.80
2019-06-07T18:58:08.892Z,62.80
2019-06-07T19:00:38.411Z,62.00
2019-06-07T19:03:07.703Z,62.10
2019-06-07T19:05:36.993Z,61.90
2019-06-07T19:08:06.285Z,60.40
2019-06-07T19:10:35.574Z,60.10
2019-06-07T19:13:04.932Z,59.50
2019-06-07T19:15:34.384Z,59.30
2019-06-07T19:18:03.768Z,58.50
2019-06-07T19:20:33.056Z,58.30
2019-06-07T19:23:02.333Z,58.10
2019-06-07T19:25:31.684Z,58.10
2019-06-07T19:28:01.413Z,57.90
2019-06-07T19:30:31.075Z,57.70
2019-06-07T19:33:01.543Z,57.90
2019-06-07T19:35:31.422Z,58.10
2019-06-07T19:38:02.124Z,58.20
2019-06-07T19:40:33.847Z,57.90
2019-06-07T19:43:04.197Z,57.80
2019-06-07T19:45:33.489Z,57.80
2019-06-07T19:48:02.933Z,58.00
2019-06-07T19:50:32.407Z,58.20
2019-06-07T19:53:03.931Z,58.30
2019-06-07T19:55:33.339Z,58.50
2019-06-07T19:58:03.902Z,58.80
2019-06-07T20:00:33.772Z,58.80
2019-06-07T20:03:04.475Z,58.80
2019-06-07T20:05:34.402Z,58.80
2019-06-07T20:08:04.943Z,58.90
2019-06-07T20:10:34.578Z,58.90
2019-06-07T20:13:05.202Z,59.40
2019-06-07T20:15:34.696Z,59.10
2019-06-07T20:18:05.571Z,59.10
2019-06-07T20:20:35.127Z,59.20
2019-06-07T20:23:05.225Z,59.30
2019-06-07T20:25:34.718Z,59.50
2019-06-07T20:28:05.573Z,59.60
2019-06-07T20:30:35.049Z,60.40
2019-06-07T20:33:05.986Z,60.00
2019-06-07T20:35:35.494Z,60.10
2019-06-07T20:38:05.734Z,60.50
2019-06-07T20:40:36.163Z,60.70
2019-06-07T20:43:05.842Z,60.80
2019-06-07T20:45:35.387Z,61.10
2019-06-07T20:48:06.317Z,61.40
2019-06-07T20:50:35.818Z,61.60
2019-06-07T20:53:05.266Z,61.60
2019-06-07T20:55:34.667Z,61.90
2019-06-07T20:58:05.357Z,62.20
2019-06-07T21:00:34.839Z,62.20
2019-06-07T21:03:05.312Z,62.60
2019-06-07T21:05:34.785Z,63.00
2019-06-07T21:08:08.048Z,63.30
2019-06-07T21:10:35.145Z,63.60
2019-06-07T21:13:05.797Z,63.70
2019-06-07T21:15:47.936Z,63.80
2019-06-07T21:18:14.986Z,64.00
2019-06-07T21:20:37.268Z,64.10
2019-06-07T21:23:06.875Z,64.10
2019-06-07T21:25:36.222Z,64.30
2019-06-07T21:28:07.261Z,64.50
2019-06-07T21:30:36.838Z,64.60
2019-06-07T21:33:07.517Z,64.90
2019-06-07T21:35:37.097Z,65.00
2019-06-07T21:38:07.867Z,65.00
2019-06-07T21:40:37.289Z,65.10
2019-06-07T21:43:06.630Z,65.40
2019-06-07T21:45:35.914Z,65.40
2019-06-07T21:48:07.051Z,65.40
2019-06-07T21:50:36.454Z,65.50
2019-06-07T21:53:06.712Z,65.50
2019-06-07T21:55:35.971Z,65.60
2019-06-07T21:58:05.267Z,65.50
2019-06-07T22:00:50.557Z,65.50
2019-06-07T22:03:21.011Z,65.40
2019-06-07T22:05:50.372Z,65.50
2019-06-07T22:08:19.650Z,65.60
2019-06-07T22:10:48.943Z,65.60
2019-06-07T22:13:18.260Z,65.90
2019-06-07T22:15:47.548Z,65.80
2019-06-07T22:18:16.846Z,66.00
2019-06-07T22:20:46.119Z,66.00
2019-06-07T22:23:15.403Z,66.20
2019-06-07T22:25:45.763Z,66.10
2019-06-07T22:28:15.048Z,66.10
2019-06-07T22:30:44.333Z,66.10
2019-06-07T22:33:15.049Z,66.20
2019-06-07T22:35:44.479Z,66.40
2019-06-07T22:38:14.238Z,66.40
2019-06-07T22:40:43.612Z,66.70
2019-06-07T22:43:13.854Z,66.80
2019-06-07T22:45:43.251Z,66.80
2019-06-07T22:48:13.433Z,67.00
2019-06-07T22:50:42.889Z,67.10
2019-06-07T22:53:12.171Z,67.20
2019-06-07T22:55:43.090Z,67.20
2019-06-07T22:58:12.375Z,67.40
2019-06-07T23:00:41.660Z,67.30
2019-06-07T23:03:10.947Z,67.10
2019-06-07T23:05:40.217Z,67.00
2019-06-07T23:08:10.838Z,67.00
2019-06-07T23:10:40.351Z,66.80
2019-06-07T23:13:11.273Z,66.80
2019-06-07T23:15:40.683Z,66.70
2019-06-07T23:18:09.963Z,66.60
2019-06-07T23:20:39.273Z,66.60
2019-06-07T23:23:08.628Z,66.60
2019-06-07T23:25:37.923Z,67.50
2019-06-07T23:28:07.207Z,66.80
2019-06-07T23:30:36.488Z,66.80
2019-06-07T23:33:05.769Z,66.20
2019-06-07T23:35:35.399Z,66.20
2019-06-07T23:38:04.686Z,65.90
2019-06-07T23:40:33.973Z,65.80
2019-06-07T23:43:03.316Z,66.00
2019-06-07T23:45:32.603Z,66.00
2019-06-07T23:48:01.966Z,65.90
2019-06-07T23:50:31.235Z,66.00
2019-06-07T23:53:00.517Z,65.20
2019-06-07T23:55:29.808Z,64.70
2019-06-07T23:57:59.087Z,65.50
